createdAt,value
2018-12-26T00:00:17.381Z,7
2018-12-26T00:05:17.335Z,6.8
2018-12-26T00:10:17.750Z,6.5
2018-12-26T00:15:18.121Z,4.1
2018-12-26T00:20:17.571Z,6.6
2018-12-26T00:25:17.707Z,7.4
2018-12-26T00:30:17.641Z,7.9
2018-12-26T00:35:17.762Z,5.2
2018-12-26T00:40:17.171Z,8.6
2018-12-26T00:45:17.278Z,9.1
2018-12-26T00:50:17.170Z,8.9
2018-12-26T00:55:17.078Z,9.8
2018-12-26T01:00:16.937Z,7.9
2018-12-26T01:05:16.827Z,11.1
2018-12-26T01:10:16.988Z,11.1
2018-12-26T01:15:16.876Z,11.1
2018-12-26T01:20:16.941Z,7.8
2018-12-26T01:25:16.835Z,13
2018-12-26T01:30:17.807Z,13.2
2018-12-26T01:35:17.686Z,13.6
2018-12-26T01:40:17.835Z,15.7
2018-12-26T01:45:17.976Z,15.5
2018-12-26T01:50:17.104Z,15.7
2018-12-26T01:55:17.104Z,10.6
2018-12-26T02:00:17.278Z,17.2
2018-12-26T02:05:17.406Z,17.1
2018-12-26T02:10:17.974Z,17.6
2018-12-26T02:15:16.995Z,17.6
2018-12-26T02:20:17.146Z,18.2
2018-12-26T02:25:17.347Z,18.1
2018-12-26T02:30:17.502Z,11.8
2018-12-26T02:35:17.642Z,19.1
2018-12-26T02:40:17.851Z,19.3
2018-12-26T02:45:18.071Z,19.4
2018-12-26T02:50:17.283Z,19.1
2018-12-26T02:55:17.530Z,19.1
2018-12-26T03:00:17.580Z,11.3
2018-12-26T03:05:17.471Z,19.7
2018-12-26T03:10:17.618Z,18.7
2018-12-26T03:15:17.521Z,18.3
2018-12-26T03:20:17.714Z,19.2
2018-12-26T03:25:17.617Z,12.2
2018-12-26T03:30:17.552Z,16.1
2018-12-26T03:35:17.467Z,18.7
2018-12-26T03:40:17.589Z,18.8
2018-12-26T03:45:17.609Z,19.2
2018-12-26T03:50:17.706Z,18.1
2018-12-26T03:55:17.626Z,19.1
2018-12-26T04:00:17.694Z,18.8
2018-12-26T04:05:17.825Z,18.6
2018-12-26T04:10:17.005Z,17.3
2018-12-26T04:15:17.006Z,14.8
2018-12-26T04:20:17.112Z,18.6
2018-12-26T04:25:17.245Z,18.3
2018-12-26T04:30:17.161Z,19.3
2018-12-26T04:35:17.264Z,19.9
2018-12-26T04:40:17.403Z,21
2018-12-26T04:45:17.312Z,16.4
2018-12-26T04:50:22.711Z,19.3
2018-12-26T04:55:17.613Z,19.4
2018-12-26T05:00:17.634Z,20.3
2018-12-26T05:05:17.750Z,19
2018-12-26T05:10:17.201Z,20.4
2018-12-26T05:15:17.111Z,21.4
2018-12-26T05:20:17.179Z,20.5
2018-12-26T05:25:17.083Z,19.9
2018-12-26T05:30:16.983Z,12.1
2018-12-26T05:35:16.910Z,21.9
2018-12-26T05:40:17.019Z,22.4
2018-12-26T05:45:16.931Z,12.7
2018-12-26T05:50:16.769Z,15.1
2018-12-26T05:55:17.906Z,23.3
2018-12-26T06:00:17.756Z,18.8
2018-12-26T06:05:17.878Z,25.4
2018-12-26T06:10:17.016Z,16.8
2018-12-26T06:15:17.160Z,26.6
2018-12-26T06:20:17.476Z,27.5
2018-12-26T06:25:17.747Z,17.5
2018-12-26T06:30:17.745Z,28.2
2018-12-26T06:35:17.623Z,16.7
2018-12-26T06:40:17.827Z,19.7
2018-12-26T06:45:17.883Z,29.7
2018-12-26T06:50:18.014Z,18
2018-12-26T06:55:17.165Z,17.4
2018-12-26T07:00:17.151Z,25.5
2018-12-26T07:05:17.092Z,18.7
2018-12-26T07:10:17.522Z,27
2018-12-26T07:15:17.611Z,16.9
2018-12-26T07:20:17.660Z,27.6
2018-12-26T07:25:17.530Z,20.1
2018-12-26T07:30:17.901Z,27.1
2018-12-26T07:35:16.782Z,23.7
2018-12-26T07:40:16.893Z,22.9
2018-12-26T07:45:18.129Z,24.9
2018-12-26T07:50:17.131Z,24.3
2018-12-26T07:55:17.039Z,25
2018-12-26T08:00:17.057Z,24.1
2018-12-26T08:05:16.970Z,25.4
2018-12-26T08:10:17.068Z,23.3
2018-12-26T08:15:16.969Z,23.6
2018-12-26T08:20:17.097Z,22.8
2018-12-26T08:25:17.105Z,22.3
2018-12-26T08:30:17.825Z,22.4
2018-12-26T08:35:18.725Z,15.3
2018-12-26T08:40:17.846Z,20.5
2018-12-26T08:45:18.025Z,17.3
2018-12-26T08:50:17.065Z,20.6
2018-12-26T08:55:17.044Z,21.8
2018-12-26T09:00:17.143Z,14.5
2018-12-26T09:05:17.258Z,19.9
2018-12-26T09:10:17.412Z,12.5
2018-12-26T09:15:17.612Z,19.2
2018-12-26T09:20:18.013Z,20.1
2018-12-26T09:25:17.022Z,11.5
2018-12-26T09:30:16.960Z,15.7
2018-12-26T09:35:17.124Z,19
2018-12-26T09:40:17.262Z,18.4
2018-12-26T09:45:17.172Z,18.1
2018-12-26T09:50:17.055Z,18.4
2018-12-26T09:55:17.064Z,14.6
2018-12-26T10:00:16.964Z,17.1
2018-12-26T10:05:16.892Z,10
2018-12-26T10:10:17.152Z,8.6
2018-12-26T10:15:17.097Z,15.2
2018-12-26T10:20:17.405Z,14.9
2018-12-26T10:25:17.283Z,11.6
2018-12-26T10:30:17.325Z,10.5
2018-12-26T10:35:17.420Z,14.4
2018-12-26T10:40:17.640Z,12.4
2018-12-26T10:45:17.650Z,10.3
2018-12-26T10:50:17.855Z,13.3
2018-12-26T10:55:18.064Z,9.5
2018-12-26T11:00:16.972Z,13.7
2018-12-26T11:05:16.959Z,12.4
2018-12-26T11:10:17.418Z,12
2018-12-26T11:15:17.756Z,7.2
2018-12-26T11:20:17.339Z,12.5
2018-12-26T11:25:17.804Z,12.5
2018-12-26T11:30:18.003Z,10.9
2018-12-26T11:35:17.020Z,6.1
2018-12-26T11:40:17.492Z,9.9
2018-12-26T11:45:17.489Z,9
2018-12-26T11:50:17.374Z,9.3
2018-12-26T11:55:17.284Z,9.1
2018-12-26T12:00:17.211Z,9.4
2018-12-26T12:05:17.141Z,9.8
2018-12-26T12:10:17.311Z,9.4
2018-12-26T12:15:17.310Z,8.2
2018-12-26T12:20:17.357Z,8.6
2018-12-26T12:25:17.264Z,8.3
2018-12-26T12:30:17.142Z,8.2
2018-12-26T12:35:17.062Z,9.7
2018-12-26T12:40:17.309Z,9.7
2018-12-26T12:45:17.227Z,9.6
2018-12-26T12:50:17.104Z,6.6
2018-12-26T12:55:17.003Z,9.7
2018-12-26T13:00:16.951Z,12.6
2018-12-26T13:05:16.999Z,12.9
2018-12-26T13:10:17.187Z,12.6
2018-12-26T13:15:17.085Z,14.1
2018-12-26T13:20:17.145Z,11.4
2018-12-26T13:25:17.031Z,14.2
2018-12-26T13:30:16.891Z,11.4
2018-12-26T13:35:17.899Z,20.9
2018-12-26T13:40:16.989Z,15.6
2018-12-26T13:45:16.899Z,21.3
2018-12-26T13:50:17.826Z,22
2018-12-26T13:55:17.825Z,23.3
2018-12-26T14:00:17.995Z,23.6
2018-12-26T14:05:16.875Z,16.2
2018-12-26T14:10:18.343Z,13.7
2018-12-26T14:15:17.384Z,26.1
2018-12-26T14:20:17.913Z,14.7
2018-12-26T14:25:17.042Z,24.3
2018-12-26T14:30:16.933Z,25.6
2018-12-26T14:35:17.032Z,14.9
2018-12-26T14:40:17.623Z,25.1
2018-12-26T14:45:17.510Z,16
2018-12-26T14:50:17.480Z,15.3
2018-12-26T14:55:17.390Z,23.9
2018-12-26T15:00:20.457Z,23.6
2018-12-26T15:05:17.331Z,19.6
2018-12-26T15:10:17.459Z,24.5
2018-12-26T15:15:17.321Z,18.4
2018-12-26T15:20:17.375Z,13.9
2018-12-26T15:25:22.344Z,25.6
2018-12-26T15:30:17.265Z,25.9
2018-12-26T15:35:17.164Z,26
2018-12-26T15:40:17.333Z,26.2
2018-12-26T15:45:17.473Z,12.1
2018-12-26T15:50:17.483Z,27.2
2018-12-26T15:55:17.373Z,13.1
2018-12-26T16:00:17.436Z,15.7
2018-12-26T16:05:17.563Z,29.3
2018-12-26T16:10:17.870Z,31.2
2018-12-26T16:15:17.760Z,16.2
2018-12-26T16:20:16.979Z,30.8
2018-12-26T16:25:16.969Z,24.9
2018-12-26T16:30:16.990Z,32.4
2018-12-26T16:35:17.028Z,23.8
2018-12-26T16:40:17.228Z,22.7
2018-12-26T16:45:17.137Z,33.1
2018-12-26T16:50:17.076Z,34.4
2018-12-26T16:55:17.527Z,35
2018-12-26T17:00:17.517Z,34.1
2018-12-26T17:05:17.516Z,35
2018-12-26T17:10:17.626Z,35.3
2018-12-26T17:15:17.826Z,34.9
2018-12-26T17:20:16.934Z,33.9
2018-12-26T17:25:16.804Z,23.6
2018-12-26T17:30:18.012Z,32.6
2018-12-26T17:35:16.923Z,32.6
2018-12-26T17:40:17.021Z,28.2
2018-12-26T17:45:17.212Z,27.8
2018-12-26T17:50:17.104Z,28.3
2018-12-26T17:55:16.989Z,17.8
2018-12-26T18:00:17.129Z,23.8
2018-12-26T18:05:17.739Z,10.1
2018-12-26T18:10:16.920Z,10.8
2018-12-26T18:15:16.950Z,15.3
2018-12-26T18:20:17.432Z,13.1
2018-12-26T18:25:17.686Z,11.7
2018-12-26T18:30:17.666Z,7.2
2018-12-26T18:35:17.896Z,10.6
2018-12-26T18:40:17.098Z,7
2018-12-26T18:45:17.526Z,15.5
2018-12-26T18:50:17.416Z,11.3
2018-12-26T18:55:17.527Z,17.7
2018-12-26T19:00:17.772Z,17.1
2018-12-26T19:05:17.943Z,11.9
2018-12-26T19:10:17.302Z,19.5
2018-12-26T19:15:17.334Z,20
2018-12-26T19:20:17.404Z,19.4
2018-12-26T19:25:17.331Z,20.4
2018-12-26T19:30:17.241Z,19.4
2018-12-26T19:36:36.084Z,20.9
2018-12-26T19:51:43.740Z,21.6
2018-12-26T20:01:24.098Z,22.1
2018-12-26T20:06:22.996Z,22.7
2018-12-26T20:16:16.976Z,21.3
2018-12-26T20:31:56.934Z,12.1
2018-12-26T20:40:17.306Z,14.5
2018-12-26T20:45:17.202Z,15.9
2018-12-26T20:50:17.275Z,21.4
2018-12-26T20:55:17.651Z,13.7
2018-12-26T21:00:17.752Z,20.3
2018-12-26T21:05:17.752Z,14.4
2018-12-26T21:10:17.052Z,22.8
2018-12-26T21:15:17.324Z,21.7
2018-12-26T21:20:17.561Z,11.2
2018-12-26T21:25:18.039Z,23.6
2018-12-26T21:30:18.529Z,22.6
2018-12-26T21:35:17.707Z,19.3
2018-12-26T21:40:16.826Z,23.1
2018-12-26T21:45:17.911Z,22.3
2018-12-26T21:50:16.866Z,21.8
2018-12-26T21:55:17.876Z,22.1
2018-12-26T22:00:17.770Z,13.1
2018-12-26T22:05:18.775Z,22
2018-12-26T22:10:17.150Z,22.9
2018-12-26T22:15:17.294Z,22.1
2018-12-26T22:20:17.485Z,21.8
2018-12-26T22:25:17.424Z,13.8
2018-12-26T22:30:17.382Z,11.2
2018-12-26T22:35:17.632Z,23.7
2018-12-26T22:40:17.985Z,25
2018-12-26T22:45:16.972Z,17.4
2018-12-26T22:50:17.070Z,25.8
2018-12-26T22:55:17.001Z,25.9
2018-12-26T23:00:17.172Z,17.2
2018-12-26T23:05:17.579Z,27.3
2018-12-26T23:10:17.902Z,16.5
2018-12-26T23:15:16.899Z,27.6
2018-12-26T23:20:16.968Z,13.3
2018-12-26T23:25:16.931Z,27
2018-12-26T23:30:17.158Z,22.1
2018-12-26T23:35:22.415Z,26.8
2018-12-26T23:40:17.855Z,22.2
2018-12-26T23:45:17.914Z,27.8
2018-12-26T23:50:16.784Z,18.5
2018-12-26T23:55:17.835Z,17.4
